sensor_id;sensor_type;location;lat;lon;timestamp;temperature;humidity
20459;DHT22;10388;52.314;7.938;2023-10-13T00:01:18;15.70;99.90
20459;DHT22;10388;52.314;7.938;2023-10-13T00:03:49;15.70;99.90
20459;DHT22;10388;52.314;7.938;2023-10-13T00:06:20;15.70;99.90
20459;DHT22;10388;52.314;7.938;2023-10-13T00:08:50;15.70;99.90
20459;DHT22;10388;52.314;7.938;2023-10-13T00:11:21;15.70;99.90
20459;DHT22;10388;52.314;7.938;2023-10-13T00:16:38;15.70;99.90
20459;DHT22;10388;52.314;7.938;2023-10-13T00:19:37;15.70;99.90
20459;DHT22;10388;52.314;7.938;2023-10-13T00:22:26;15.70;99.90
20459;DHT22;10388;52.314;7.938;2023-10-13T00:25:19;15.70;99.90
20459;DHT22;10388;52.314;7.938;2023-10-13T00:28:05;15.80;99.90
20459;DHT22;10388;52.314;7.938;2023-10-13T00:30:46;15.70;99.90
20459;DHT22;10388;52.314;7.938;2023-10-13T00:33:29;15.80;99.90
20459;DHT22;10388;52.314;7.938;2023-10-13T00:36:05;15.70;99.90
20459;DHT22;10388;52.314;7.938;2023-10-13T00:38:38;15.70;99.90
20459;DHT22;10388;52.314;7.938;2023-10-13T00:41:20;15.70;99.90
20459;DHT22;10388;52.314;7.938;2023-10-13T00:44:24;15.70;99.90
20459;DHT22;10388;52.314;7.938;2023-10-13T00:47:46;15.70;99.90
20459;DHT22;10388;52.314;7.938;2023-10-13T00:50:49;15.70;99.90
20459;DHT22;10388;52.314;7.938;2023-10-13T00:53:20;15.70;99.90
20459;DHT22;10388;52.314;7.938;2023-10-13T00:55:54;15.80;99.90
20459;DHT22;10388;52.314;7.938;2023-10-13T00:58:40;15.80;99.90
20459;DHT22;10388;52.314;7.938;2023-10-13T01:01:25;15.80;99.90
20459;DHT22;10388;52.314;7.938;2023-10-13T01:04:36;15.80;99.90
20459;DHT22;10388;52.314;7.938;2023-10-13T01:10:33;15.80;99.90
20459;DHT22;10388;52.314;7.938;2023-10-13T01:13:16;15.80;99.90
20459;DHT22;10388;52.314;7.938;2023-10-13T01:16:22;15.80;99.90
20459;DHT22;10388;52.314;7.938;2023-10-13T01:18:58;15.80;99.90
20459;DHT22;10388;52.314;7.938;2023-10-13T01:21:38;15.80;99.90
20459;DHT22;10388;52.314;7.938;2023-10-13T01:27:47;15.80;99.90
20459;DHT22;10388;52.314;7.938;2023-10-13T01:31:05;15.80;99.90
20459;DHT22;10388;52.314;7.938;2023-10-13T01:33:55;15.80;99.90
20459;DHT22;10388;52.314;7.938;2023-10-13T01:37:02;15.90;99.90
20459;DHT22;10388;52.314;7.938;2023-10-13T01:39:36;15.80;99.90
20459;DHT22;10388;52.314;7.938;2023-10-13T01:45:17;15.80;99.90
20459;DHT22;10388;52.314;7.938;2023-10-13T01:47:53;15.90;99.90
20459;DHT22;10388;52.314;7.938;2023-10-13T01:50:27;15.90;99.90
20459;DHT22;10388;52.314;7.938;2023-10-13T01:57:21;15.80;99.90
20459;DHT22;10388;52.314;7.938;2023-10-13T02:00:00;15.90;99.90
20459;DHT22;10388;52.314;7.938;2023-10-13T02:02:51;15.90;99.90
20459;DHT22;10388;52.314;7.938;2023-10-13T02:08:32;15.80;99.90
20459;DHT22;10388;52.314;7.938;2023-10-13T02:11:10;15.90;99.90
20459;DHT22;10388;52.314;7.938;2023-10-13T02:14:19;15.80;99.90
20459;DHT22;10388;52.314;7.938;2023-10-13T02:17:20;15.90;99.90
20459;DHT22;10388;52.314;7.938;2023-10-13T02:20:25;15.90;99.90
20459;DHT22;10388;52.314;7.938;2023-10-13T02:23:49;15.90;99.90
20459;DHT22;10388;52.314;7.938;2023-10-13T02:26:40;15.90;99.90
20459;DHT22;10388;52.314;7.938;2023-10-13T02:32:57;15.90;99.90
20459;DHT22;10388;52.314;7.938;2023-10-13T02:35:36;15.90;99.90
20459;DHT22;10388;52.314;7.938;2023-10-13T02:38:13;15.90;99.90
20459;DHT22;10388;52.314;7.938;2023-10-13T02:40:52;15.90;99.90
20459;DHT22;10388;52.314;7.938;2023-10-13T02:43:35;15.90;99.90
20459;DHT22;10388;52.314;7.938;2023-10-13T02:46:17;15.90;99.90
20459;DHT22;10388;52.314;7.938;2023-10-13T02:49:11;15.90;99.90
20459;DHT22;10388;52.314;7.938;2023-10-13T02:55:26;15.90;99.90
20459;DHT22;10388;52.314;7.938;2023-10-13T02:58:01;16.00;99.90
20459;DHT22;10388;52.314;7.938;2023-10-13T03:00:45;16.00;99.90
20459;DHT22;10388;52.314;7.938;2023-10-13T03:03:21;15.90;99.90
20459;DHT22;10388;52.314;7.938;2023-10-13T03:06:03;16.00;99.90
20459;DHT22;10388;52.314;7.938;2023-10-13T03:08:34;16.00;99.90
20459;DHT22;10388;52.314;7.938;2023-10-13T03:11:16;16.00;99.90
20459;DHT22;10388;52.314;7.938;2023-10-13T03:18:02;16.00;99.90
20459;DHT22;10388;52.314;7.938;2023-10-13T03:21:02;16.00;99.90
20459;DHT22;10388;52.314;7.938;2023-10-13T03:23:35;16.00;99.90
20459;DHT22;10388;52.314;7.938;2023-10-13T03:29:45;16.00;99.90
20459;DHT22;10388;52.314;7.938;2023-10-13T03:32:37;16.00;99.90
20459;DHT22;10388;52.314;7.938;2023-10-13T03:35:16;16.00;99.90
20459;DHT22;10388;52.314;7.938;2023-10-13T03:37:57;16.00;99.90
20459;DHT22;10388;52.314;7.938;2023-10-13T03:40:50;16.00;99.90
20459;DHT22;10388;52.314;7.938;2023-10-13T03:43:57;16.00;99.90
20459;DHT22;10388;52.314;7.938;2023-10-13T03:46:43;16.00;99.90
20459;DHT22;10388;52.314;7.938;2023-10-13T03:49:18;16.00;99.90
20459;DHT22;10388;52.314;7.938;2023-10-13T03:51:52;16.00;99.90
20459;DHT22;10388;52.314;7.938;2023-10-13T03:54:37;16.00;99.90
20459;DHT22;10388;52.314;7.938;2023-10-13T03:57:13;16.00;99.90
20459;DHT22;10388;52.314;7.938;2023-10-13T03:59:50;16.00;99.90
20459;DHT22;10388;52.314;7.938;2023-10-13T04:03:00;16.00;99.90
20459;DHT22;10388;52.314;7.938;2023-10-13T04:05:46;16.00;99.90
20459;DHT22;10388;52.314;7.938;2023-10-13T04:15:17;16.00;99.90
20459;DHT22;10388;52.314;7.938;2023-10-13T04:17:50;16.00;99.90
20459;DHT22;10388;52.314;7.938;2023-10-13T04:20:21;16.00;99.90
20459;DHT22;10388;52.314;7.938;2023-10-13T04:23:03;16.00;99.90
20459;DHT22;10388;52.314;7.938;2023-10-13T04:25:48;16.00;99.90
20459;DHT22;10388;52.314;7.938;2023-10-13T04:28:19;16.00;99.90
20459;DHT22;10388;52.314;7.938;2023-10-13T04:31:05;16.00;99.90
20459;DHT22;10388;52.314;7.938;2023-10-13T04:33:42;16.00;99.90
20459;DHT22;10388;52.314;7.938;2023-10-13T04:36:22;16.00;99.90
20459;DHT22;10388;52.314;7.938;2023-10-13T04:38:59;16.00;99.90
20459;DHT22;10388;52.314;7.938;2023-10-13T04:41:36;16.00;99.90
20459;DHT22;10388;52.314;7.938;2023-10-13T04:44:14;16.00;99.90
20459;DHT22;10388;52.314;7.938;2023-10-13T04:47:01;16.00;99.90
20459;DHT22;10388;52.314;7.938;2023-10-13T04:49:32;16.00;99.90
20459;DHT22;10388;52.314;7.938;2023-10-13T04:52:20;16.00;99.90
20459;DHT22;10388;52.314;7.938;2023-10-13T04:55:21;16.00;99.90
20459;DHT22;10388;52.314;7.938;2023-10-13T04:58:18;16.00;99.90
20459;DHT22;10388;52.314;7.938;2023-10-13T05:01:18;16.00;99.90
20459;DHT22;10388;52.314;7.938;2023-10-13T05:03:54;16.00;99.90
20459;DHT22;10388;52.314;7.938;2023-10-13T05:06:43;16.00;99.90
20459;DHT22;10388;52.314;7.938;2023-10-13T05:09:14;16.00;99.90
20459;DHT22;10388;52.314;7.938;2023-10-13T05:12:03;16.00;99.90
20459;DHT22;10388;52.314;7.938;2023-10-13T05:14:52;16.00;99.90
20459;DHT22;10388;52.314;7.938;2023-10-13T05:17:43;16.00;99.90
20459;DHT22;10388;52.314;7.938;2023-10-13T05:20:31;16.00;99.90
20459;DHT22;10388;52.314;7.938;2023-10-13T05:23:20;16.00;99.90
20459;DHT22;10388;52.314;7.938;2023-10-13T05:26:09;16.00;99.90
20459;DHT22;10388;52.314;7.938;2023-10-13T05:28:58;16.00;99.90
20459;DHT22;10388;52.314;7.938;2023-10-13T05:31:47;16.00;99.90
20459;DHT22;10388;52.314;7.938;2023-10-13T05:34:36;16.00;99.90
20459;DHT22;10388;52.314;7.938;2023-10-13T05:37:26;16.00;99.90
20459;DHT22;10388;52.314;7.938;2023-10-13T05:40:15;16.00;99.90
20459;DHT22;10388;52.314;7.938;2023-10-13T05:43:04;16.00;99.90
20459;DHT22;10388;52.314;7.938;2023-10-13T05:45:53;16.00;99.90
20459;DHT22;10388;52.314;7.938;2023-10-13T05:48:42;16.00;99.90
20459;DHT22;10388;52.314;7.938;2023-10-13T05:51:31;16.00;99.90
20459;DHT22;10388;52.314;7.938;2023-10-13T05:54:20;16.00;99.90
20459;DHT22;10388;52.314;7.938;2023-10-13T05:56:51;16.00;99.90
20459;DHT22;10388;52.314;7.938;2023-10-13T05:59:40;16.00;99.90
20459;DHT22;10388;52.314;7.938;2023-10-13T06:02:29;16.00;99.90
20459;DHT22;10388;52.314;7.938;2023-10-13T06:05:18;16.00;99.90
20459;DHT22;10388;52.314;7.938;2023-10-13T06:08:07;15.90;99.90
20459;DHT22;10388;52.314;7.938;2023-10-13T06:11:03;15.90;99.90
20459;DHT22;10388;52.314;7.938;2023-10-13T06:13:52;15.90;99.90
20459;DHT22;10388;52.314;7.938;2023-10-13T06:16:41;15.90;99.90
20459;DHT22;10388;52.314;7.938;2023-10-13T06:19:30;15.90;99.90
20459;DHT22;10388;52.314;7.938;2023-10-13T06:22:19;15.90;99.90
20459;DHT22;10388;52.314;7.938;2023-10-13T06:25:08;15.90;99.90
20459;DHT22;10388;52.314;7.938;2023-10-13T06:27:57;15.90;99.90
20459;DHT22;10388;52.314;7.938;2023-10-13T06:30:57;15.90;99.90
20459;DHT22;10388;52.314;7.938;2023-10-13T06:33:28;15.90;99.90
20459;DHT22;10388;52.314;7.938;2023-10-13T06:36:04;16.00;99.90
20459;DHT22;10388;52.314;7.938;2023-10-13T06:38:39;16.00;99.90
20459;DHT22;10388;52.314;7.938;2023-10-13T06:41:10;16.10;99.90
20459;DHT22;10388;52.314;7.938;2023-10-13T06:43:50;16.10;99.90
20459;DHT22;10388;52.314;7.938;2023-10-13T06:46:29;16.10;99.90
20459;DHT22;10388;52.314;7.938;2023-10-13T06:49:04;16.10;99.90
20459;DHT22;10388;52.314;7.938;2023-10-13T06:51:34;16.10;99.90
20459;DHT22;10388;52.314;7.938;2023-10-13T06:54:08;16.20;99.90
20459;DHT22;10388;52.314;7.938;2023-10-13T06:56:50;16.20;99.90
20459;DHT22;10388;52.314;7.938;2023-10-13T06:59:23;16.20;99.90
20459;DHT22;10388;52.314;7.938;2023-10-13T07:01:56;16.30;99.90
20459;DHT22;10388;52.314;7.938;2023-10-13T07:04:33;16.30;99.90
20459;DHT22;10388;52.314;7.938;2023-10-13T07:07:05;16.30;99.90
20459;DHT22;10388;52.314;7.938;2023-10-13T07:09:36;16.40;99.90
20459;DHT22;10388;52.314;7.938;2023-10-13T07:12:07;16.40;99.90
20459;DHT22;10388;52.314;7.938;2023-10-13T07:14:47;16.40;99.90
20459;DHT22;10388;52.314;7.938;2023-10-13T07:17:22;16.40;99.90
20459;DHT22;10388;52.314;7.938;2023-10-13T07:19:56;16.50;99.90
20459;DHT22;10388;52.314;7.938;2023-10-13T07:22:36;16.60;99.90
20459;DHT22;10388;52.314;7.938;2023-10-13T07:25:10;16.60;99.90
20459;DHT22;10388;52.314;7.938;2023-10-13T07:27:46;16.70;99.90
20459;DHT22;10388;52.314;7.938;2023-10-13T07:30:17;16.70;99.90
20459;DHT22;10388;52.314;7.938;2023-10-13T07:32:50;16.70;99.90
20459;DHT22;10388;52.314;7.938;2023-10-13T07:35:21;16.80;99.90
20459;DHT22;10388;52.314;7.938;2023-10-13T07:37:56;16.80;99.90
20459;DHT22;10388;52.314;7.938;2023-10-13T07:40:30;16.80;99.90
20459;DHT22;10388;52.314;7.938;2023-10-13T07:43:00;16.80;99.90
20459;DHT22;10388;52.314;7.938;2023-10-13T07:45:31;16.90;99.90
20459;DHT22;10388;52.314;7.938;2023-10-13T07:48:09;16.90;99.90
20459;DHT22;10388;52.314;7.938;2023-10-13T07:51:09;16.90;99.90
20459;DHT22;10388;52.314;7.938;2023-10-13T07:53:42;17.00;99.90
20459;DHT22;10388;52.314;7.938;2023-10-13T07:56:19;17.00;99.90
20459;DHT22;10388;52.314;7.938;2023-10-13T07:58:52;17.00;99.90
20459;DHT22;10388;52.314;7.938;2023-10-13T08:01:31;17.00;99.90
20459;DHT22;10388;52.314;7.938;2023-10-13T08:04:03;17.00;99.90
20459;DHT22;10388;52.314;7.938;2023-10-13T08:06:41;17.00;99.90
20459;DHT22;10388;52.314;7.938;2023-10-13T08:09:13;17.00;99.90
20459;DHT22;10388;52.314;7.938;2023-10-13T08:12:04;17.00;99.90
20459;DHT22;10388;52.314;7.938;2023-10-13T08:14:35;17.10;99.90
20459;DHT22;10388;52.314;7.938;2023-10-13T08:17:09;17.20;99.90
20459;DHT22;10388;52.314;7.938;2023-10-13T08:19:41;17.20;99.90
20459;DHT22;10388;52.314;7.938;2023-10-13T08:22:18;17.20;99.90
20459;DHT22;10388;52.314;7.938;2023-10-13T08:24:50;17.30;99.90
20459;DHT22;10388;52.314;7.938;2023-10-13T08:27:21;17.30;99.90
20459;DHT22;10388;52.314;7.938;2023-10-13T08:30:20;17.40;99.90
20459;DHT22;10388;52.314;7.938;2023-10-13T08:33:00;17.40;99.90
20459;DHT22;10388;52.314;7.938;2023-10-13T08:35:46;17.40;99.90
20459;DHT22;10388;52.314;7.938;2023-10-13T08:38:37;17.40;99.90
20459;DHT22;10388;52.314;7.938;2023-10-13T08:41:22;17.40;99.90
20459;DHT22;10388;52.314;7.938;2023-10-13T08:43:56;17.40;99.90
20459;DHT22;10388;52.314;7.938;2023-10-13T08:46:34;17.40;99.90
20459;DHT22;10388;52.314;7.938;2023-10-13T08:49:31;17.40;99.90
20459;DHT22;10388;52.314;7.938;2023-10-13T08:52:10;17.50;99.90
20459;DHT22;10388;52.314;7.938;2023-10-13T08:55:05;17.50;99.90
20459;DHT22;10388;52.314;7.938;2023-10-13T08:57:55;17.50;99.90
20459;DHT22;10388;52.314;7.938;2023-10-13T09:00:33;17.50;99.90
20459;DHT22;10388;52.314;7.938;2023-10-13T09:03:23;17.50;99.90
20459;DHT22;10388;52.314;7.938;2023-10-13T09:06:00;17.50;99.90
20459;DHT22;10388;52.314;7.938;2023-10-13T09:08:36;17.50;99.90
20459;DHT22;10388;52.314;7.938;2023-10-13T09:11:15;17.60;99.90
20459;DHT22;10388;52.314;7.938;2023-10-13T09:13:50;17.60;99.90
20459;DHT22;10388;52.314;7.938;2023-10-13T09:16:24;17.60;99.90
20459;DHT22;10388;52.314;7.938;2023-10-13T09:19:09;17.60;99.90
20459;DHT22;10388;52.314;7.938;2023-10-13T09:21:42;17.70;99.90
20459;DHT22;10388;52.314;7.938;2023-10-13T09:24:12;17.70;99.90
20459;DHT22;10388;52.314;7.938;2023-10-13T09:27:02;17.80;99.90
20459;DHT22;10388;52.314;7.938;2023-10-13T09:29:33;17.90;99.90
20459;DHT22;10388;52.314;7.938;2023-10-13T09:32:09;17.90;99.90
20459;DHT22;10388;52.314;7.938;2023-10-13T09:34:42;18.00;99.90
20459;DHT22;10388;52.314;7.938;2023-10-13T09:37:14;18.10;99.90
20459;DHT22;10388;52.314;7.938;2023-10-13T09:39:51;18.20;99.90
20459;DHT22;10388;52.314;7.938;2023-10-13T09:42:23;18.40;99.90
20459;DHT22;10388;52.314;7.938;2023-10-13T09:44:56;18.50;99.90
20459;DHT22;10388;52.314;7.938;2023-10-13T09:47:29;18.50;99.90
20459;DHT22;10388;52.314;7.938;2023-10-13T09:50:02;18.50;99.90
20459;DHT22;10388;52.314;7.938;2023-10-13T09:52:36;18.60;99.90
20459;DHT22;10388;52.314;7.938;2023-10-13T09:55:17;18.60;99.90
20459;DHT22;10388;52.314;7.938;2023-10-13T09:57:56;18.70;99.90
20459;DHT22;10388;52.314;7.938;2023-10-13T10:00:32;18.80;99.90
20459;DHT22;10388;52.314;7.938;2023-10-13T10:03:13;18.90;99.90
20459;DHT22;10388;52.314;7.938;2023-10-13T10:06:03;19.00;99.90
20459;DHT22;10388;52.314;7.938;2023-10-13T10:08:38;19.00;99.90
20459;DHT22;10388;52.314;7.938;2023-10-13T10:14:01;19.10;99.90
20459;DHT22;10388;52.314;7.938;2023-10-13T10:19:31;19.30;99.90
20459;DHT22;10388;52.314;7.938;2023-10-13T10:22:06;19.40;99.90
20459;DHT22;10388;52.314;7.938;2023-10-13T10:25:00;19.50;99.90
20459;DHT22;10388;52.314;7.938;2023-10-13T10:27:33;19.50;99.90
20459;DHT22;10388;52.314;7.938;2023-10-13T10:30:05;19.50;99.90
20459;DHT22;10388;52.314;7.938;2023-10-13T10:32:36;19.60;99.90
20459;DHT22;10388;52.314;7.938;2023-10-13T10:35:10;19.60;99.90
20459;DHT22;10388;52.314;7.938;2023-10-13T10:37:51;19.60;99.90
20459;DHT22;10388;52.314;7.938;2023-10-13T10:40:21;19.60;99.90
20459;DHT22;10388;52.314;7.938;2023-10-13T10:43:11;19.70;99.90
20459;DHT22;10388;52.314;7.938;2023-10-13T10:45:48;19.80;99.90
20459;DHT22;10388;52.314;7.938;2023-10-13T10:48:21;19.90;99.90
20459;DHT22;10388;52.314;7.938;2023-10-13T10:50:55;19.90;99.90
20459;DHT22;10388;52.314;7.938;2023-10-13T10:53:26;20.00;99.90
20459;DHT22;10388;52.314;7.938;2023-10-13T10:56:06;20.10;99.90
20459;DHT22;10388;52.314;7.938;2023-10-13T10:58:57;20.10;99.90
20459;DHT22;10388;52.314;7.938;2023-10-13T11:01:29;20.00;99.90
20459;DHT22;10388;52.314;7.938;2023-10-13T11:04:08;20.00;99.90
20459;DHT22;10388;52.314;7.938;2023-10-13T11:06:52;20.10;99.90
20459;DHT22;10388;52.314;7.938;2023-10-13T11:09:30;20.30;99.90
20459;DHT22;10388;52.314;7.938;2023-10-13T11:14:45;20.20;99.90
20459;DHT22;10388;52.314;7.938;2023-10-13T11:17:22;20.10;99.90
20459;DHT22;10388;52.314;7.938;2023-10-13T11:20:13;20.00;99.90
20459;DHT22;10388;52.314;7.938;2023-10-13T11:22:48;20.10;99.90
20459;DHT22;10388;52.314;7.938;2023-10-13T11:25:29;20.10;99.90
20459;DHT22;10388;52.314;7.938;2023-10-13T11:28:12;20.10;99.90
20459;DHT22;10388;52.314;7.938;2023-10-13T11:30:59;20.00;99.90
20459;DHT22;10388;52.314;7.938;2023-10-13T11:33:29;20.00;99.90
20459;DHT22;10388;52.314;7.938;2023-10-13T11:36:00;20.00;99.90
20459;DHT22;10388;52.314;7.938;2023-10-13T11:38:34;20.00;99.90
20459;DHT22;10388;52.314;7.938;2023-10-13T11:41:10;20.00;99.90
20459;DHT22;10388;52.314;7.938;2023-10-13T11:46:24;20.00;99.90
20459;DHT22;10388;52.314;7.938;2023-10-13T11:49:11;20.10;99.90
20459;DHT22;10388;52.314;7.938;2023-10-13T11:51:49;20.10;99.90
20459;DHT22;10388;52.314;7.938;2023-10-13T11:54:22;20.00;99.90
20459;DHT22;10388;52.314;7.938;2023-10-13T11:56:53;20.00;99.90
20459;DHT22;10388;52.314;7.938;2023-10-13T11:59:28;20.10;99.90
20459;DHT22;10388;52.314;7.938;2023-10-13T12:01:59;20.30;99.90
20459;DHT22;10388;52.314;7.938;2023-10-13T12:04:41;20.30;99.90
20459;DHT22;10388;52.314;7.938;2023-10-13T12:07:22;20.40;99.90
20459;DHT22;10388;52.314;7.938;2023-10-13T12:10:11;20.50;99.90
20459;DHT22;10388;52.314;7.938;2023-10-13T12:13:03;20.60;99.90
20459;DHT22;10388;52.314;7.938;2023-10-13T12:15:38;20.50;99.90
20459;DHT22;10388;52.314;7.938;2023-10-13T12:18:18;20.60;99.90
20459;DHT22;10388;52.314;7.938;2023-10-13T12:20:50;20.50;99.90
20459;DHT22;10388;52.314;7.938;2023-10-13T12:23:20;20.50;99.90
20459;DHT22;10388;52.314;7.938;2023-10-13T12:26:02;20.50;99.90
20459;DHT22;10388;52.314;7.938;2023-10-13T12:28:36;20.50;99.90
20459;DHT22;10388;52.314;7.938;2023-10-13T12:31:11;20.50;99.90
20459;DHT22;10388;52.314;7.938;2023-10-13T12:33:42;20.50;99.90
20459;DHT22;10388;52.314;7.938;2023-10-13T12:36:13;20.50;99.90
20459;DHT22;10388;52.314;7.938;2023-10-13T12:38:43;20.50;99.90
20459;DHT22;10388;52.314;7.938;2023-10-13T12:41:18;20.50;99.90
20459;DHT22;10388;52.314;7.938;2023-10-13T12:44:07;20.60;99.90
20459;DHT22;10388;52.314;7.938;2023-10-13T12:46:56;20.80;99.90
20459;DHT22;10388;52.314;7.938;2023-10-13T12:49:46;20.70;99.90
20459;DHT22;10388;52.314;7.938;2023-10-13T12:52:19;20.60;99.90
20459;DHT22;10388;52.314;7.938;2023-10-13T12:54:50;20.60;99.90
20459;DHT22;10388;52.314;7.938;2023-10-13T12:57:27;20.60;99.90
20459;DHT22;10388;52.314;7.938;2023-10-13T12:59:58;20.60;99.90
20459;DHT22;10388;52.314;7.938;2023-10-13T13:02:29;20.70;99.90
20459;DHT22;10388;52.314;7.938;2023-10-13T13:05:00;20.70;99.90
20459;DHT22;10388;52.314;7.938;2023-10-13T13:07:41;20.60;99.90
20459;DHT22;10388;52.314;7.938;2023-10-13T13:10:22;20.60;99.90
20459;DHT22;10388;52.314;7.938;2023-10-13T13:13:05;20.70;99.90
20459;DHT22;10388;52.314;7.938;2023-10-13T13:15:36;20.60;99.90
20459;DHT22;10388;52.314;7.938;2023-10-13T13:18:06;20.60;99.90
20459;DHT22;10388;52.314;7.938;2023-10-13T13:20:43;20.70;99.90
20459;DHT22;10388;52.314;7.938;2023-10-13T13:23:23;20.70;99.90
20459;DHT22;10388;52.314;7.938;2023-10-13T13:25:56;20.70;99.90
20459;DHT22;10388;52.314;7.938;2023-10-13T13:28:27;20.70;99.90
20459;DHT22;10388;52.314;7.938;2023-10-13T13:31:08;20.80;99.90
20459;DHT22;10388;52.314;7.938;2023-10-13T13:33:39;20.80;99.90
20459;DHT22;10388;52.314;7.938;2023-10-13T13:36:12;20.80;99.90
20459;DHT22;10388;52.314;7.938;2023-10-13T13:38:46;20.70;99.90
20459;DHT22;10388;52.314;7.938;2023-10-13T13:41:18;20.80;99.90
20459;DHT22;10388;52.314;7.938;2023-10-13T13:43:50;20.80;99.90
20459;DHT22;10388;52.314;7.938;2023-10-13T13:46:24;20.80;99.90
20459;DHT22;10388;52.314;7.938;2023-10-13T13:48:55;20.90;99.90
20459;DHT22;10388;52.314;7.938;2023-10-13T13:51:30;20.90;99.90
20459;DHT22;10388;52.314;7.938;2023-10-13T13:54:02;20.90;99.90
20459;DHT22;10388;52.314;7.938;2023-10-13T13:56:36;20.90;99.90
20459;DHT22;10388;52.314;7.938;2023-10-13T13:59:09;20.90;99.90
20459;DHT22;10388;52.314;7.938;2023-10-13T14:01:45;21.00;99.90
20459;DHT22;10388;52.314;7.938;2023-10-13T14:04:15;21.00;99.90
20459;DHT22;10388;52.314;7.938;2023-10-13T14:06:47;21.00;99.90
20459;DHT22;10388;52.314;7.938;2023-10-13T14:09:18;21.00;99.90
20459;DHT22;10388;52.314;7.938;2023-10-13T14:12:06;21.00;99.90
20459;DHT22;10388;52.314;7.938;2023-10-13T14:14:56;21.00;99.90
20459;DHT22;10388;52.314;7.938;2023-10-13T14:17:27;21.00;99.90
20459;DHT22;10388;52.314;7.938;2023-10-13T14:20:06;21.10;99.90
20459;DHT22;10388;52.314;7.938;2023-10-13T14:22:46;21.10;99.90
20459;DHT22;10388;52.314;7.938;2023-10-13T14:25:18;21.00;99.90
20459;DHT22;10388;52.314;7.938;2023-10-13T14:27:54;21.00;99.90
20459;DHT22;10388;52.314;7.938;2023-10-13T14:30:28;21.00;99.90
20459;DHT22;10388;52.314;7.938;2023-10-13T14:33:01;21.00;99.90
20459;DHT22;10388;52.314;7.938;2023-10-13T14:35:35;21.00;99.90
20459;DHT22;10388;52.314;7.938;2023-10-13T14:38:06;21.00;99.90
20459;DHT22;10388;52.314;7.938;2023-10-13T14:40:37;21.00;99.90
20459;DHT22;10388;52.314;7.938;2023-10-13T14:43:08;21.00;99.90
20459;DHT22;10388;52.314;7.938;2023-10-13T14:45:38;21.10;99.90
20459;DHT22;10388;52.314;7.938;2023-10-13T14:48:09;21.00;99.90
20459;DHT22;10388;52.314;7.938;2023-10-13T14:50:42;21.00;99.90
20459;DHT22;10388;52.314;7.938;2023-10-13T14:53:13;20.90;99.90
20459;DHT22;10388;52.314;7.938;2023-10-13T14:55:47;21.00;99.90
20459;DHT22;10388;52.314;7.938;2023-10-13T14:58:18;21.00;99.90
20459;DHT22;10388;52.314;7.938;2023-10-13T15:00:49;21.00;99.90
20459;DHT22;10388;52.314;7.938;2023-10-13T15:03:19;21.10;99.90
20459;DHT22;10388;52.314;7.938;2023-10-13T15:05:50;21.00;99.90
20459;DHT22;10388;52.314;7.938;2023-10-13T15:08:20;21.00;99.90
20459;DHT22;10388;52.314;7.938;2023-10-13T15:10:51;20.90;99.90
20459;DHT22;10388;52.314;7.938;2023-10-13T15:13:21;20.90;99.90
20459;DHT22;10388;52.314;7.938;2023-10-13T15:15:53;20.80;99.90
20459;DHT22;10388;52.314;7.938;2023-10-13T15:18:23;20.70;99.90
20459;DHT22;10388;52.314;7.938;2023-10-13T15:20:54;20.70;99.90
20459;DHT22;10388;52.314;7.938;2023-10-13T15:23:26;20.70;99.90
20459;DHT22;10388;52.314;7.938;2023-10-13T15:25:57;20.80;99.90
20459;DHT22;10388;52.314;7.938;2023-10-13T15:28:37;20.60;99.90
20459;DHT22;10388;52.314;7.938;2023-10-13T15:31:11;20.60;99.90
20459;DHT22;10388;52.314;7.938;2023-10-13T15:33:54;20.60;99.90
20459;DHT22;10388;52.314;7.938;2023-10-13T15:36:26;20.60;99.90
20459;DHT22;10388;52.314;7.938;2023-10-13T15:38:57;20.50;99.90
20459;DHT22;10388;52.314;7.938;2023-10-13T15:41:28;20.40;99.90
20459;DHT22;10388;52.314;7.938;2023-10-13T15:43:59;20.40;99.90
20459;DHT22;10388;52.314;7.938;2023-10-13T15:46:29;20.30;99.90
20459;DHT22;10388;52.314;7.938;2023-10-13T15:49:01;20.20;99.90
20459;DHT22;10388;52.314;7.938;2023-10-13T15:51:33;20.20;99.90
20459;DHT22;10388;52.314;7.938;2023-10-13T15:54:07;20.20;99.90
20459;DHT22;10388;52.314;7.938;2023-10-13T15:56:49;20.10;99.90
20459;DHT22;10388;52.314;7.938;2023-10-13T15:59:20;20.10;99.90
20459;DHT22;10388;52.314;7.938;2023-10-13T16:01:53;20.00;99.90
20459;DHT22;10388;52.314;7.938;2023-10-13T16:04:27;20.00;99.90
20459;DHT22;10388;52.314;7.938;2023-10-13T16:06:58;20.00;99.90
20459;DHT22;10388;52.314;7.938;2023-10-13T16:09:29;20.00;99.90
20459;DHT22;10388;52.314;7.938;2023-10-13T16:12:04;20.00;99.90
20459;DHT22;10388;52.314;7.938;2023-10-13T16:14:35;20.00;99.90
20459;DHT22;10388;52.314;7.938;2023-10-13T16:17:06;20.00;99.90
20459;DHT22;10388;52.314;7.938;2023-10-13T16:19:39;19.90;99.90
20459;DHT22;10388;52.314;7.938;2023-10-13T16:22:10;19.90;99.90
20459;DHT22;10388;52.314;7.938;2023-10-13T16:24:40;19.80;99.90
20459;DHT22;10388;52.314;7.938;2023-10-13T16:27:11;19.80;99.90
20459;DHT22;10388;52.314;7.938;2023-10-13T16:29:44;19.90;99.90
20459;DHT22;10388;52.314;7.938;2023-10-13T16:32:14;19.90;99.90
20459;DHT22;10388;52.314;7.938;2023-10-13T16:34:45;19.90;99.90
20459;DHT22;10388;52.314;7.938;2023-10-13T16:37:15;19.90;99.90
20459;DHT22;10388;52.314;7.938;2023-10-13T16:39:47;19.80;99.90
20459;DHT22;10388;52.314;7.938;2023-10-13T16:42:17;19.80;99.90
20459;DHT22;10388;52.314;7.938;2023-10-13T16:44:48;19.90;99.90
20459;DHT22;10388;52.314;7.938;2023-10-13T16:47:19;19.90;99.90
20459;DHT22;10388;52.314;7.938;2023-10-13T16:49:49;19.90;99.90
20459;DHT22;10388;52.314;7.938;2023-10-13T16:52:20;19.90;99.90
20459;DHT22;10388;52.314;7.938;2023-10-13T16:54:50;19.80;99.90
20459;DHT22;10388;52.314;7.938;2023-10-13T16:57:21;19.80;99.90
20459;DHT22;10388;52.314;7.938;2023-10-13T16:59:51;19.70;99.90
20459;DHT22;10388;52.314;7.938;2023-10-13T17:02:22;19.70;99.90
20459;DHT22;10388;52.314;7.938;2023-10-13T17:04:52;19.70;99.90
20459;DHT22;10388;52.314;7.938;2023-10-13T17:07:27;19.70;99.90
20459;DHT22;10388;52.314;7.938;2023-10-13T17:09:58;19.60;99.90
20459;DHT22;10388;52.314;7.938;2023-10-13T17:12:28;19.50;99.90
20459;DHT22;10388;52.314;7.938;2023-10-13T17:15:00;19.30;99.90
20459;DHT22;10388;52.314;7.938;2023-10-13T17:17:34;19.20;99.90
20459;DHT22;10388;52.314;7.938;2023-10-13T17:20:05;19.00;99.90
20459;DHT22;10388;52.314;7.938;2023-10-13T17:22:36;18.90;99.90
20459;DHT22;10388;52.314;7.938;2023-10-13T17:25:06;18.80;99.90
20459;DHT22;10388;52.314;7.938;2023-10-13T17:27:41;18.80;99.90
20459;DHT22;10388;52.314;7.938;2023-10-13T17:30:11;18.80;99.90
20459;DHT22;10388;52.314;7.938;2023-10-13T17:32:42;18.70;99.90
20459;DHT22;10388;52.314;7.938;2023-10-13T17:35:14;18.70;99.90